Time;durP1;ratioP1;P1;durP2;ratioP2;P2;SDS_P1;SDS_P2;PMS_P1;PMS_P2;Temp;Humidity;BMP_temperature;BMP_pressure;BME280_temperature;BME280_humidity;BME280_pressure;Samples;Min_cycle;Max_cycle;Signal;HPM_P1;HPM_P2
2022/09/23 00:00:42;;;;;;;15.80;14.00;;;10.60;99.90;;;;;;4938267;29;20058;-86
2022/09/23 00:03:08;;;;;;;18.10;12.95;;;10.60;99.90;;;;;;4939495;29;20499;-87
2022/09/23 00:05:34;;;;;;;17.00;13.77;;;10.50;99.90;;;;;;4939118;29;20390;-87
2022/09/23 00:08:00;;;;;;;17.88;14.77;;;10.50;99.90;;;;;;4922588;29;20044;-87
2022/09/23 00:10:30;;;;;;;16.80;14.88;;;10.50;99.90;;;;;;4921803;29;20075;-86
2022/09/23 00:12:57;;;;;;;16.73;14.77;;;10.60;99.90;;;;;;4922138;29;20047;-86
2022/09/23 00:15:24;;;;;;;17.50;15.70;;;10.50;99.90;;;;;;4922498;29;20048;-87
2022/09/23 00:17:53;;;;;;;15.25;13.63;;;10.50;99.90;;;;;;4922088;29;20396;-86
2022/09/23 00:20:18;;;;;;;16.15;14.40;;;10.40;99.90;;;;;;4922262;29;20055;-88
2022/09/23 00:22:45;;;;;;;16.98;15.23;;;10.40;99.90;;;;;;4939143;29;20388;-86
2022/09/23 00:25:11;;;;;;;19.00;15.63;;;10.40;99.90;;;;;;4920956;29;20063;-87
2022/09/23 00:27:37;;;;;;;17.40;15.52;;;10.40;99.90;;;;;;4939017;29;20044;-86
2022/09/23 00:30:06;;;;;;;16.95;15.25;;;10.40;99.90;;;;;;4922057;29;20391;-86
2022/09/23 00:32:32;;;;;;;19.88;16.05;;;10.50;99.90;;;;;;4938756;29;20432;-88
2022/09/23 00:34:58;;;;;;;17.17;15.50;;;10.40;99.90;;;;;;4938818;29;20488;-88
2022/09/23 00:37:24;;;;;;;18.95;16.13;;;10.50;99.90;;;;;;4922047;29;20099;-87
2022/09/23 00:39:50;;;;;;;17.70;16.00;;;10.50;99.90;;;;;;4938866;29;20048;-90
2022/09/23 00:42:20;;;;;;;19.10;15.88;;;10.40;99.90;;;;;;4922011;29;20102;-90
2022/09/23 00:44:57;;;;;;;18.50;16.42;;;10.50;99.90;;;;;;4938533;29;20040;-89
2022/09/23 00:47:51;;;;;;;19.42;17.52;;;10.40;99.90;;;;;;4921527;29;20094;-89
2022/09/23 00:50:38;;;;;;;18.33;16.42;;;10.50;99.90;;;;;;4938600;29;20094;-90
2022/09/23 00:53:10;;;;;;;18.17;15.27;;;10.40;99.90;;;;;;4938378;29;20853;-89
2022/09/23 00:55:41;;;;;;;17.83;16.03;;;10.40;99.90;;;;;;4921466;29;20044;-89
2022/09/23 00:58:11;;;;;;;20.30;17.88;;;10.40;99.90;;;;;;4938482;29;20476;-89
2022/09/23 01:00:37;;;;;;;18.17;16.38;;;10.40;99.90;;;;;;4921627;29;20040;-89
2022/09/23 01:03:05;;;;;;;22.05;18.15;;;10.40;99.90;;;;;;4938424;29;20083;-89
2022/09/23 01:05:33;;;;;;;21.98;17.27;;;10.40;99.90;;;;;;4920919;29;20051;-88
2022/09/23 01:08:01;;;;;;;20.48;18.27;;;10.40;99.90;;;;;;4921114;29;20058;-90
2022/09/23 01:10:33;;;;;;;22.58;18.10;;;10.40;99.90;;;;;;4938313;29;20138;-89
2022/09/23 01:13:07;;;;;;;20.42;17.67;;;10.50;99.90;;;;;;4938369;29;20106;-89
2022/09/23 01:15:51;;;;;;;21.63;19.38;;;10.40;99.90;;;;;;4937956;29;20511;-89
2022/09/23 01:18:42;;;;;;;20.15;18.02;;;10.50;99.90;;;;;;4938246;29;20127;-87
2022/09/23 01:21:10;;;;;;;21.08;18.88;;;10.50;99.90;;;;;;4938150;29;20047;-88
2022/09/23 01:23:45;;;;;;;21.00;18.70;;;10.50;99.90;;;;;;4938030;29;20051;-87
2022/09/23 01:26:33;;;;;;;21.92;19.60;;;10.50;99.90;;;;;;4920700;29;20052;-87
2022/09/23 01:29:26;;;;;;;22.63;19.52;;;10.50;99.90;;;;;;4921439;29;20048;-86
2022/09/23 01:31:52;;;;;;;21.80;19.17;;;10.50;99.90;;;;;;4920924;29;20087;-86
2022/09/23 01:34:26;;;;;;;21.95;19.70;;;10.60;99.90;;;;;;4937576;29;20091;-86
2022/09/23 01:37:02;;;;;;;22.90;20.58;;;10.60;99.90;;;;;;4907908;29;20127;-86
2022/09/23 01:39:57;;;;;;;22.08;19.80;;;10.60;99.90;;;;;;4918897;29;20048;-86
2022/09/23 01:42:33;;;;;;;21.65;19.35;;;10.60;99.90;;;;;;4917719;29;20052;-86
2022/09/23 01:45:42;;;;;;;22.98;20.63;;;10.60;99.90;;;;;;4918378;29;20395;-86
2022/09/23 01:48:22;;;;;;;22.83;20.52;;;10.60;99.90;;;;;;4892326;29;20072;-86
2022/09/23 01:50:59;;;;;;;23.13;20.77;;;10.60;99.90;;;;;;4901855;29;20100;-86
2022/09/23 01:53:36;;;;;;;22.23;19.92;;;10.60;99.90;;;;;;4901458;29;20047;-87
2022/09/23 01:56:09;;;;;;;24.40;19.75;;;10.60;99.90;;;;;;4918555;29;20048;-87
2022/09/23 01:58:45;;;;;;;22.08;19.85;;;10.60;99.90;;;;;;4901503;29;20071;-87
2022/09/23 02:01:17;;;;;;;24.00;21.50;;;10.60;99.90;;;;;;4901346;29;20051;-87
2022/09/23 02:04:04;;;;;;;25.40;21.75;;;10.60;99.90;;;;;;4901325;29;20088;-87
2022/09/23 02:06:37;;;;;;;23.83;21.23;;;10.60;99.90;;;;;;4907416;29;20104;-87
2022/09/23 02:09:11;;;;;;;23.80;21.30;;;10.60;99.90;;;;;;4917307;29;20052;-88
2022/09/23 02:11:40;;;;;;;25.80;21.48;;;10.60;99.90;;;;;;4916995;29;20048;-87
2022/09/23 02:14:27;;;;;;;24.30;21.65;;;10.60;99.90;;;;;;4918190;29;20041;-87
2022/09/23 02:16:58;;;;;;;22.75;20.35;;;10.60;99.90;;;;;;4916867;29;20480;-86
2022/09/23 02:19:38;;;;;;;24.10;20.98;;;10.50;99.90;;;;;;4916882;29;20040;-86
2022/09/23 02:22:14;;;;;;;24.38;20.95;;;10.50;99.90;;;;;;4917105;29;20051;-86
2022/09/23 02:24:40;;;;;;;25.10;21.98;;;10.50;99.90;;;;;;4916589;29;20096;-87
2022/09/23 02:27:08;;;;;;;24.05;20.75;;;10.40;99.90;;;;;;4917957;29;20052;-88
2022/09/23 02:30:01;;;;;;;24.45;21.75;;;10.40;99.90;;;;;;4917816;29;20601;-88
2022/09/23 02:32:35;;;;;;;27.00;22.55;;;10.30;99.90;;;;;;4917909;29;20048;-87
2022/09/23 02:35:14;;;;;;;26.27;21.42;;;10.30;99.90;;;;;;4916518;29;20051;-88
2022/09/23 02:38:03;;;;;;;23.90;21.35;;;10.20;99.90;;;;;;4917803;29;20099;-87
2022/09/23 02:40:37;;;;;;;24.33;21.77;;;10.20;99.90;;;;;;4917833;29;20052;-87
2022/09/23 02:43:18;;;;;;;23.40;20.60;;;10.10;99.90;;;;;;4917549;29;20111;-87
2022/09/23 02:45:45;;;;;;;28.13;21.88;;;10.10;99.90;;;;;;4917535;29;20048;-88
2022/09/23 02:48:20;;;;;;;27.08;21.48;;;10.00;99.90;;;;;;4917160;29;20062;-87
2022/09/23 02:50:46;;;;;;;26.00;21.88;;;10.00;99.90;;;;;;4916432;29;20056;-88
2022/09/23 02:53:15;;;;;;;25.70;21.48;;;10.00;99.90;;;;;;4917676;29;20055;-87
2022/09/23 02:55:41;;;;;;;22.70;20.13;;;10.00;99.90;;;;;;4916463;29;20059;-87
2022/09/23 02:58:10;;;;;;;24.98;22.35;;;10.00;99.90;;;;;;4916534;29;20060;-88
2022/09/23 03:01:31;;;;;;;26.02;22.40;;;10.00;99.90;;;;;;4916468;29;20080;-88
2022/09/23 03:04:22;;;;;;;23.90;21.05;;;10.00;99.90;;;;;;4843894;29;20054;-87
2022/09/23 03:07:31;;;;;;;26.23;21.27;;;10.00;99.90;;;;;;4843639;29;20141;-87
2022/09/23 03:10:16;;;;;;;26.40;21.35;;;9.90;99.90;;;;;;4916462;29;20048;-87
2022/09/23 03:12:56;;;;;;;25.15;21.65;;;9.90;99.90;;;;;;4916346;29;20439;-87
2022/09/23 03:15:56;;;;;;;25.40;21.73;;;9.90;99.90;;;;;;4916042;29;20067;-88
2022/09/23 03:18:35;;;;;;;25.85;21.27;;;9.80;99.90;;;;;;4913093;29;20064;-87
2022/09/23 03:21:06;;;;;;;28.00;22.48;;;9.80;99.90;;;;;;4916209;29;20373;-88
2022/09/23 03:23:38;;;;;;;24.55;21.00;;;9.80;99.90;;;;;;4917433;29;20127;-87
2022/09/23 03:26:09;;;;;;;25.25;21.38;;;9.80;99.90;;;;;;4915993;29;20091;-88
2022/09/23 03:28:42;;;;;;;23.98;21.08;;;9.80;99.90;;;;;;4917433;29;20044;-88
2022/09/23 03:31:10;;;;;;;24.70;21.05;;;9.70;99.90;;;;;;4916157;29;20111;-89
2022/09/23 03:33:39;;;;;;;25.02;22.30;;;9.70;99.90;;;;;;4916144;29;20056;-89
2022/09/23 03:39:03;;;;;;;26.15;22.73;;;9.70;99.90;;;;;;4917220;29;20139;-89
2022/09/23 03:41:37;;;;;;;23.50;20.88;;;9.60;99.90;;;;;;4915829;29;20059;-88
2022/09/23 03:44:04;;;;;;;28.25;21.52;;;9.60;99.90;;;;;;4916018;29;20056;-89
2022/09/23 03:46:34;;;;;;;24.13;21.35;;;9.60;99.90;;;;;;4915852;29;20063;-89
2022/09/23 03:49:26;;;;;;;25.42;21.73;;;9.60;99.90;;;;;;4917122;29;20110;-87
2022/09/23 03:51:55;;;;;;;24.48;21.38;;;9.60;99.90;;;;;;4915715;29;20135;-89
2022/09/23 03:54:21;;;;;;;26.15;22.45;;;9.50;99.90;;;;;;4915709;29;20515;-88
2022/09/23 03:56:47;;;;;;;25.45;21.73;;;9.50;99.90;;;;;;4915965;29;20087;-87
2022/09/23 03:59:13;;;;;;;24.92;20.60;;;9.50;99.90;;;;;;4918251;29;20060;-88
2022/09/23 04:01:44;;;;;;;24.20;21.05;;;9.50;99.90;;;;;;4919470;29;20092;-87
2022/09/23 04:04:10;;;;;;;24.08;21.27;;;9.40;99.90;;;;;;4920466;29;20075;-89
2022/09/23 04:06:36;;;;;;;25.55;22.48;;;9.40;99.90;;;;;;4920197;29;20404;-89
2022/09/23 04:09:02;;;;;;;24.20;20.67;;;9.40;99.90;;;;;;4903322;29;20052;-88
2022/09/23 04:11:28;;;;;;;25.60;21.30;;;9.40;99.90;;;;;;4920419;29;20040;-89
2022/09/23 04:13:57;;;;;;;27.90;21.65;;;9.30;99.90;;;;;;4920161;29;20401;-88
2022/09/23 04:16:23;;;;;;;24.45;21.08;;;9.30;99.90;;;;;;4920359;29;20067;-89
2022/09/23 04:18:49;;;;;;;24.60;20.58;;;9.30;99.90;;;;;;4903213;29;20060;-89
2022/09/23 04:21:14;;;;;;;26.15;21.05;;;9.30;99.90;;;;;;4920192;29;20051;-89
2022/09/23 04:23:40;;;;;;;27.58;21.27;;;9.20;99.90;;;;;;4903320;29;20059;-89
2022/09/23 04:26:06;;;;;;;27.05;21.80;;;9.20;99.90;;;;;;4903075;29;20080;-88
2022/09/23 04:28:33;;;;;;;25.77;21.10;;;9.30;99.90;;;;;;4920353;29;20476;-88
2022/09/23 04:31:03;;;;;;;22.15;19.75;;;9.20;99.90;;;;;;4903410;29;20063;-88
2022/09/23 04:33:29;;;;;;;25.23;21.23;;;9.30;99.90;;;;;;4919978;29;20051;-88
2022/09/23 04:35:54;;;;;;;24.55;21.25;;;9.30;99.90;;;;;;4902857;29;20056;-88
2022/09/23 04:38:20;;;;;;;23.50;20.10;;;9.20;99.90;;;;;;4903101;29;20099;-89
2022/09/23 04:40:47;;;;;;;25.75;21.23;;;9.20;99.90;;;;;;4903111;29;20440;-88
2022/09/23 04:43:15;;;;;;;24.80;21.40;;;9.30;99.90;;;;;;4902888;29;20096;-87
2022/09/23 04:45:41;;;;;;;24.73;20.42;;;9.20;99.90;;;;;;4902639;29;20064;-88
2022/09/23 04:48:08;;;;;;;26.38;20.95;;;9.20;99.90;;;;;;4919647;29;20377;-88
2022/09/23 04:50:34;;;;;;;27.77;21.60;;;9.20;99.90;;;;;;4902600;29;20044;-88
2022/09/23 04:53:00;;;;;;;28.25;21.55;;;9.20;99.90;;;;;;4919662;29;20059;-88
2022/09/23 04:55:26;;;;;;;26.42;21.60;;;9.20;99.90;;;;;;4902891;29;20056;-89
2022/09/23 04:57:52;;;;;;;26.17;20.95;;;9.20;99.90;;;;;;4919570;29;20047;-88
2022/09/23 05:00:17;;;;;;;24.60;20.45;;;9.30;99.90;;;;;;4902532;29;20047;-88
2022/09/23 05:02:44;;;;;;;27.25;20.58;;;9.30;99.90;;;;;;4919297;29;20032;-89
2022/09/23 05:05:10;;;;;;;25.40;20.38;;;9.30;99.90;;;;;;4919417;29;20052;-88
2022/09/23 05:07:36;;;;;;;25.95;20.73;;;9.40;99.90;;;;;;4916815;29;20522;-87
2022/09/23 05:10:01;;;;;;;25.52;20.42;;;9.40;99.90;;;;;;4917588;29;20056;-86
2022/09/23 05:12:27;;;;;;;25.80;20.02;;;9.40;99.90;;;;;;4918055;29;20130;-85
2022/09/23 05:14:53;;;;;;;24.40;20.17;;;9.40;99.90;;;;;;4916729;29;20488;-85
2022/09/23 05:17:20;;;;;;;25.98;19.80;;;9.40;99.90;;;;;;4917527;29;20059;-86
2022/09/23 05:19:45;;;;;;;26.83;21.00;;;9.40;99.90;;;;;;4917600;29;20083;-86
2022/09/23 05:22:11;;;;;;;25.58;20.77;;;9.40;99.90;;;;;;4917914;29;20139;-85
2022/09/23 05:24:37;;;;;;;25.67;20.83;;;9.40;99.90;;;;;;4918806;29;20396;-85
2022/09/23 05:27:06;;;;;;;26.58;21.67;;;9.40;99.90;;;;;;4917673;29;20055;-86
2022/09/23 05:29:32;;;;;;;23.55;20.15;;;9.40;99.90;;;;;;4917965;29;20051;-85
2022/09/23 05:31:58;;;;;;;26.88;21.50;;;9.40;99.90;;;;;;4918681;29;20075;-86
2022/09/23 05:34:24;;;;;;;27.98;21.23;;;9.40;99.90;;;;;;4917698;29;20079;-86
2022/09/23 05:36:49;;;;;;;24.23;20.25;;;9.40;99.90;;;;;;4918652;29;20158;-86
2022/09/23 05:39:15;;;;;;;26.50;20.95;;;9.40;99.90;;;;;;4917677;29;20052;-86
2022/09/23 05:41:42;;;;;;;24.52;20.77;;;9.40;99.90;;;;;;4917598;29;20044;-86
2022/09/23 05:44:08;;;;;;;24.50;19.77;;;9.40;99.90;;;;;;4918504;29;20044;-86
2022/09/23 05:46:34;;;;;;;24.95;19.60;;;9.40;99.90;;;;;;4917534;29;20131;-86
2022/09/23 05:49:00;;;;;;;25.02;20.60;;;9.40;99.90;;;;;;4918596;29;20143;-86
2022/09/23 05:51:27;;;;;;;23.23;19.60;;;9.40;99.90;;;;;;4919415;29;20048;-86
2022/09/23 05:53:54;;;;;;;26.52;20.48;;;9.40;99.90;;;;;;4919196;29;20088;-86
2022/09/23 05:56:22;;;;;;;25.02;19.98;;;9.40;99.90;;;;;;4917424;29;20415;-86
2022/09/23 05:58:53;;;;;;;23.45;19.98;;;9.40;99.90;;;;;;4916862;29;20432;-86
2022/09/23 06:01:21;;;;;;;23.27;20.10;;;9.50;99.90;;;;;;4918237;29;20481;-86
2022/09/23 06:03:47;;;;;;;23.58;19.60;;;9.50;99.90;;;;;;4916955;29;20062;-86
2022/09/23 06:06:16;;;;;;;22.30;19.30;;;9.50;99.90;;;;;;4917979;29;20052;-86
2022/09/23 06:08:43;;;;;;;24.05;20.05;;;9.50;99.90;;;;;;4901310;29;20048;-85
2022/09/23 06:11:10;;;;;;;24.40;20.42;;;9.50;99.90;;;;;;4901121;29;20048;-87
2022/09/23 06:13:37;;;;;;;28.58;20.30;;;9.50;99.90;;;;;;4918154;29;20044;-86
2022/09/23 06:16:08;;;;;;;23.83;19.58;;;9.50;99.90;;;;;;4900919;29;20066;-86
2022/09/23 06:18:37;;;;;;;23.23;20.35;;;9.60;99.90;;;;;;4901112;29;20405;-87
2022/09/23 06:21:03;;;;;;;23.25;19.33;;;9.60;99.90;;;;;;4900569;29;20059;-85
2022/09/23 06:23:30;;;;;;;23.23;20.33;;;9.70;99.90;;;;;;4900418;29;20096;-86
2022/09/23 06:26:07;;;;;;;26.83;19.63;;;9.70;99.90;;;;;;4917806;29;20044;-86
2022/09/23 06:28:35;;;;;;;24.23;20.08;;;9.80;99.90;;;;;;4900741;29;20052;-89
2022/09/23 06:31:03;;;;;;;24.80;20.10;;;9.80;99.90;;;;;;4917831;29;20091;-88
2022/09/23 06:33:30;;;;;;;22.42;20.05;;;9.90;99.90;;;;;;4901021;29;20452;-87
2022/09/23 06:36:00;;;;;;;23.58;19.60;;;9.90;99.90;;;;;;4917724;29;20071;-89
2022/09/23 06:38:27;;;;;;;22.05;19.33;;;10.00;99.90;;;;;;4900613;29;20127;-88
2022/09/23 06:40:54;;;;;;;23.40;20.17;;;10.00;99.90;;;;;;4917798;29;20060;-86
2022/09/23 06:43:22;;;;;;;23.30;20.77;;;10.10;99.90;;;;;;4900499;29;20056;-85
2022/09/23 06:45:59;;;;;;;24.35;21.20;;;10.20;99.90;;;;;;4900450;29;20131;-85
2022/09/23 06:48:26;;;;;;;23.67;19.83;;;10.20;99.90;;;;;;4917429;29;20048;-83
2022/09/23 06:50:52;;;;;;;23.80;19.42;;;10.30;99.90;;;;;;4920997;29;20111;-86
2022/09/23 06:53:22;;;;;;;22.50;19.63;;;10.40;99.90;;;;;;4923984;29;20063;-85
2022/09/23 06:55:48;;;;;;;21.85;19.55;;;10.40;99.90;;;;;;4917675;29;20059;-86
2022/09/23 06:58:17;;;;;;;26.05;20.90;;;10.50;99.90;;;;;;4917343;29;20043;-85
2022/09/23 07:00:42;;;;;;;24.77;20.23;;;10.50;99.90;;;;;;4900059;29;20131;-87
2022/09/23 07:03:08;;;;;;;23.33;19.95;;;10.50;99.90;;;;;;4900410;29;20075;-87
2022/09/23 07:05:37;;;;;;;22.58;20.17;;;10.60;99.90;;;;;;4899806;29;20122;-86
2022/09/23 07:08:07;;;;;;;25.02;19.90;;;10.70;99.90;;;;;;4922116;29;20110;-81
2022/09/23 07:10:32;;;;;;;20.88;17.98;;;10.70;99.90;;;;;;4922226;29;20051;-83
2022/09/23 07:13:01;;;;;;;24.33;19.77;;;10.80;99.90;;;;;;4917235;29;20044;-86
2022/09/23 07:15:26;;;;;;;22.77;19.38;;;11.00;99.90;;;;;;4916881;29;20444;-85
2022/09/23 07:17:52;;;;;;;21.20;18.25;;;11.00;99.90;;;;;;4899843;29;20488;-85
2022/09/23 07:20:18;;;;;;;22.30;19.77;;;11.20;99.90;;;;;;4900307;29;20115;-86
2022/09/23 07:22:48;;;;;;;24.00;19.10;;;11.30;99.90;;;;;;4916651;29;20131;-83
2022/09/23 07:25:18;;;;;;;20.75;18.25;;;11.40;99.90;;;;;;4900092;29;20123;-87
2022/09/23 07:27:45;;;;;;;20.98;17.90;;;11.50;99.90;;;;;;4900027;29;20056;-85
2022/09/23 07:30:13;;;;;;;22.05;17.85;;;11.60;99.90;;;;;;4899737;29;20044;-82
2022/09/23 07:32:39;;;;;;;25.05;19.08;;;11.60;99.90;;;;;;4900024;29;20051;-85
2022/09/23 07:35:05;;;;;;;21.20;18.33;;;11.70;99.90;;;;;;4920445;29;20043;-85
2022/09/23 07:37:31;;;;;;;24.40;18.30;;;11.70;99.90;;;;;;4920715;29;20066;-86
2022/09/23 07:39:59;;;;;;;21.25;17.10;;;11.80;99.90;;;;;;4920465;29;20386;-86
2022/09/23 07:42:25;;;;;;;22.25;18.00;;;11.90;99.90;;;;;;4920325;29;20056;-86
2022/09/23 07:44:51;;;;;;;22.23;17.67;;;11.90;99.90;;;;;;4903276;29;20115;-85
2022/09/23 07:47:17;;;;;;;21.95;17.88;;;11.90;99.90;;;;;;4903776;29;20087;-86
2022/09/23 07:49:43;;;;;;;21.50;18.42;;;11.80;99.90;;;;;;4920623;29;20076;-86
2022/09/23 07:52:09;;;;;;;20.73;16.95;;;11.90;99.90;;;;;;4903397;29;20484;-87
2022/09/23 07:54:34;;;;;;;21.33;18.92;;;11.90;99.90;;;;;;4903359;29;20040;-86
2022/09/23 07:57:02;;;;;;;20.60;17.98;;;11.90;99.90;;;;;;4903156;29;20128;-86
2022/09/23 07:59:28;;;;;;;21.33;18.48;;;12.00;99.90;;;;;;4909894;29;20135;-87
2022/09/23 08:01:56;;;;;;;21.27;18.42;;;12.00;99.90;;;;;;4939290;29;20071;-87
2022/09/23 08:04:28;;;;;;;19.40;17.25;;;12.00;99.90;;;;;;4921896;29;20114;-85
2022/09/23 08:07:03;;;;;;;20.67;18.15;;;12.10;99.90;;;;;;4930934;29;20388;-86
2022/09/23 08:09:40;;;;;;;22.55;18.05;;;12.10;99.90;;;;;;4937467;29;20039;-84
2022/09/23 08:12:07;;;;;;;20.33;18.13;;;12.20;99.90;;;;;;4937543;29;20492;-85
2022/09/23 08:14:32;;;;;;;21.92;18.23;;;12.30;99.90;;;;;;4938726;29;20047;-84
2022/09/23 08:17:04;;;;;;;19.45;17.05;;;12.40;99.90;;;;;;4938521;29;20086;-84
2022/09/23 08:19:39;;;;;;;25.08;17.45;;;12.40;99.90;;;;;;4938625;29;20389;-84
2022/09/23 08:22:04;;;;;;;23.83;17.23;;;12.50;99.90;;;;;;4939042;29;20111;-86
2022/09/23 08:24:31;;;;;;;18.30;16.33;;;12.60;99.90;;;;;;4938816;29;20131;-85
2022/09/23 08:26:56;;;;;;;19.27;16.17;;;12.60;99.90;;;;;;4938750;29;20471;-85
2022/09/23 08:29:24;;;;;;;18.33;15.80;;;12.70;99.90;;;;;;4937576;29;20075;-86
2022/09/23 08:31:50;;;;;;;18.65;16.65;;;12.80;99.90;;;;;;4938646;29;20044;-84
2022/09/23 08:34:18;;;;;;;18.73;16.58;;;12.80;99.90;;;;;;4938453;29;20051;-83
2022/09/23 08:36:44;;;;;;;18.85;16.23;;;12.90;99.90;;;;;;4937588;29;20079;-85
2022/09/23 08:39:15;;;;;;;19.20;15.85;;;13.00;99.90;;;;;;4937236;29;20118;-86
2022/09/23 08:41:53;;;;;;;18.35;15.52;;;13.00;99.90;;;;;;4938648;29;20055;-84
2022/09/23 08:44:25;;;;;;;19.17;16.08;;;13.10;99.90;;;;;;4936542;29;20479;-85
2022/09/23 08:47:20;;;;;;;18.15;15.23;;;13.20;99.90;;;;;;4938095;29;20106;-84
2022/09/23 08:50:11;;;;;;;19.33;15.15;;;13.20;99.90;;;;;;4938569;29;20051;-83
2022/09/23 08:53:00;;;;;;;20.63;15.88;;;13.30;99.90;;;;;;4937130;29;20162;-81
2022/09/23 08:55:40;;;;;;;18.88;15.52;;;13.40;99.90;;;;;;4937153;29;20135;-85
2022/09/23 08:58:34;;;;;;;16.38;14.15;;;13.50;99.90;;;;;;4936581;29;20055;-85
2022/09/23 09:01:23;;;;;;;17.25;14.80;;;13.60;99.90;;;;;;4935865;29;20055;-84
2022/09/23 09:04:00;;;;;;;18.73;14.05;;;13.70;99.90;;;;;;4936742;29;20057;-84
2022/09/23 09:06:38;;;;;;;15.85;14.25;;;13.60;99.90;;;;;;4943755;29;20060;-84
2022/09/23 09:09:12;;;;;;;17.30;14.55;;;13.60;99.90;;;;;;4937305;29;20118;-85
2022/09/23 09:11:42;;;;;;;19.73;15.00;;;13.70;99.90;;;;;;4936754;29;20526;-85
2022/09/23 09:14:18;;;;;;;16.83;15.05;;;13.70;99.90;;;;;;4938234;29;20049;-83
2022/09/23 09:16:52;;;;;;;17.45;15.02;;;13.80;99.90;;;;;;4936796;29;20083;-84
2022/09/23 09:19:20;;;;;;;19.20;15.25;;;13.80;99.90;;;;;;4936178;29;20130;-84
2022/09/23 09:21:52;;;;;;;17.17;15.30;;;13.80;99.90;;;;;;4936210;29;20051;-85
2022/09/23 09:24:25;;;;;;;17.80;15.70;;;13.80;99.90;;;;;;4935898;29;20051;-83
2022/09/23 09:26:51;;;;;;;17.80;15.20;;;13.80;99.90;;;;;;4936361;29;20059;-85
2022/09/23 09:29:27;;;;;;;19.83;13.43;;;13.80;99.90;;;;;;4935801;29;20044;-86
2022/09/23 09:31:52;;;;;;;16.83;15.02;;;13.90;99.90;;;;;;4936857;29;20075;-85
2022/09/23 09:34:40;;;;;;;19.77;16.17;;;13.80;99.90;;;;;;4936339;29;20082;-84
2022/09/23 09:37:27;;;;;;;17.92;15.07;;;13.90;99.90;;;;;;4937573;29;20059;-83
2022/09/23 09:39:52;;;;;;;17.80;15.27;;;13.90;99.90;;;;;;4918641;29;20055;-83
2022/09/23 09:42:26;;;;;;;18.42;16.52;;;13.90;99.90;;;;;;4942702;29;20047;-86
2022/09/23 09:45:18;;;;;;;17.92;15.43;;;13.90;99.90;;;;;;4922052;28;20051;-87
2022/09/23 09:47:59;;;;;;;17.92;16.02;;;14.00;99.90;;;;;;4948662;29;20410;-86
2022/09/23 09:50:47;;;;;;;17.33;15.40;;;14.00;99.90;;;;;;4955277;29;20098;-85
2022/09/23 09:53:14;;;;;;;18.27;16.20;;;14.10;99.90;;;;;;4954786;29;20047;-84
2022/09/23 09:55:40;;;;;;;20.52;16.65;;;14.10;99.90;;;;;;4947425;29;20055;-85
2022/09/23 09:58:12;;;;;;;19.20;16.35;;;14.20;99.90;;;;;;4936067;29;20056;-85
2022/09/23 10:00:45;;;;;;;19.00;16.33;;;14.20;99.90;;;;;;4937318;29;20051;-85
2022/09/23 10:03:13;;;;;;;19.08;16.45;;;14.30;99.90;;;;;;4935845;29;20531;-86
2022/09/23 10:05:47;;;;;;;21.42;15.52;;;14.30;99.90;;;;;;4936869;29;20150;-85
2022/09/23 10:08:32;;;;;;;22.75;16.10;;;14.40;99.90;;;;;;4919790;29;20051;-85
2022/09/23 10:10:57;;;;;;;18.88;16.48;;;14.40;99.90;;;;;;4919939;29;20055;-86
2022/09/23 10:13:28;;;;;;;21.52;17.40;;;14.50;99.90;;;;;;4932549;29;20109;-84
2022/09/23 10:15:56;;;;;;;19.42;15.75;;;14.60;99.90;;;;;;4956006;29;20174;-85
2022/09/23 10:18:31;;;;;;;18.48;16.42;;;14.60;99.90;;;;;;4956132;29;20039;-85
2022/09/23 10:21:06;;;;;;;17.58;15.35;;;14.70;99.90;;;;;;4938827;29;20058;-86
2022/09/23 10:23:32;;;;;;;21.73;16.65;;;14.70;99.90;;;;;;4938554;29;20483;-85
2022/09/23 10:26:01;;;;;;;21.00;17.02;;;14.70;99.90;;;;;;4938277;29;20051;-86
2022/09/23 10:28:50;;;;;;;18.92;15.82;;;14.70;99.90;;;;;;4955693;29;20047;-85
2022/09/23 10:31:25;;;;;;;19.05;15.82;;;14.80;99.90;;;;;;4938655;29;20043;-85
2022/09/23 10:33:59;;;;;;;19.65;16.63;;;14.80;99.90;;;;;;4938371;29;20442;-86
2022/09/23 10:36:30;;;;;;;19.38;17.33;;;14.80;99.90;;;;;;4938402;29;20059;-88
2022/09/23 10:48:21;;;;;;;18.63;16.08;;;15.00;99.90;;;;;;4903139;29;20514;-85
2022/09/23 10:50:50;;;;;;;20.23;15.75;;;15.10;99.90;;;;;;4900211;29;20445;-84
2022/09/23 10:53:19;;;;;;;19.83;17.00;;;15.20;99.90;;;;;;4924447;29;20040;-83
2022/09/23 10:55:50;;;;;;;19.02;15.40;;;15.20;99.90;;;;;;4935615;29;20071;-84
2022/09/23 10:58:51;;;;;;;18.83;15.82;;;15.30;99.90;;;;;;4935841;29;20043;-86
2022/09/23 11:01:32;;;;;;;21.63;18.15;;;15.30;99.90;;;;;;4910496;29;20059;-87
2022/09/23 11:03:58;;;;;;;22.00;16.60;;;15.40;99.90;;;;;;4917345;29;20050;-86
2022/09/23 11:06:49;;;;;;;20.65;17.42;;;15.50;99.90;;;;;;4923767;29;20142;-85
2022/09/23 11:09:28;;;;;;;20.38;16.05;;;15.60;99.90;;;;;;4934538;29;20395;-85
2022/09/23 11:11:57;;;;;;;18.83;16.25;;;15.70;99.90;;;;;;4935110;29;20054;-85
2022/09/23 11:14:54;;;;;;;23.15;17.88;;;15.80;99.90;;;;;;4935012;29;20056;-84
2022/09/23 11:17:40;;;;;;;20.05;16.73;;;15.90;99.90;;;;;;4934273;29;20134;-84
2022/09/23 11:20:21;;;;;;;18.73;16.73;;;16.00;99.90;;;;;;4934202;29;20060;-85
2022/09/23 11:23:13;;;;;;;20.00;17.20;;;16.00;99.90;;;;;;4936172;29;20040;-85
2022/09/23 11:26:06;;;;;;;20.58;17.25;;;16.20;99.90;;;;;;4935589;29;20058;-83
2022/09/23 11:28:37;;;;;;;19.25;17.25;;;16.20;99.90;;;;;;4935030;29;20052;-83
2022/09/23 11:31:37;;;;;;;21.77;17.40;;;16.30;99.90;;;;;;4934548;29;20179;-85
2022/09/23 11:34:17;;;;;;;19.73;16.60;;;16.40;99.90;;;;;;4935076;29;20474;-86
2022/09/23 11:36:56;;;;;;;36.85;17.08;;;16.40;99.90;;;;;;4934900;29;20054;-84
2022/09/23 11:39:28;;;;;;;24.48;15.93;;;16.40;99.90;;;;;;4935847;29;20440;-86
2022/09/23 11:41:58;;;;;;;42.85;18.90;;;16.50;99.90;;;;;;4936139;29;20103;-92
2022/09/23 11:44:34;;;;;;;27.83;17.25;;;16.50;99.90;;;;;;4935150;29;20095;-87
2022/09/23 11:47:06;;;;;;;28.42;16.52;;;16.60;99.90;;;;;;4935628;29;20111;-85
2022/09/23 11:49:35;;;;;;;26.58;16.13;;;16.70;99.90;;;;;;4935909;29;20047;-83
2022/09/23 11:52:13;;;;;;;30.67;25.73;;;16.70;99.90;;;;;;4934427;29;20115;-85
2022/09/23 11:55:00;;;;;;;23.92;21.27;;;16.60;99.90;;;;;;4939631;29;20047;-86
2022/09/23 11:57:34;;;;;;;19.52;17.45;;;16.50;99.90;;;;;;4955261;29;20062;-86
2022/09/23 12:00:06;;;;;;;20.17;16.58;;;16.50;99.90;;;;;;4955267;28;20053;-81
2022/09/23 12:03:08;;;;;;;19.77;16.53;;;16.50;99.90;;;;;;4954402;29;20051;-82
2022/09/23 12:06:31;;;;;;;22.15;16.55;;;16.40;99.90;;;;;;4954352;28;20047;-84
2022/09/23 12:09:03;;;;;;;18.23;16.33;;;16.30;99.90;;;;;;4876878;29;20045;-87
2022/09/23 12:11:36;;;;;;;18.00;16.10;;;16.20;99.90;;;;;;4936732;29;20089;-86
2022/09/23 12:14:40;;;;;;;18.42;16.33;;;16.20;99.90;;;;;;4937446;29;20502;-88
2022/09/23 12:17:25;;;;;;;18.25;16.35;;;16.10;99.90;;;;;;4937484;29;20395;-88
2022/09/23 12:20:32;;;;;;;19.67;17.67;;;16.10;99.90;;;;;;4955015;28;20071;-85
2022/09/23 12:23:16;;;;;;;19.00;16.63;;;16.00;99.90;;;;;;4919992;29;20113;-85
2022/09/23 12:25:46;;;;;;;20.58;16.88;;;16.00;99.90;;;;;;4940432;29;20059;-81
2022/09/23 12:28:34;;;;;;;20.35;17.67;;;16.00;99.90;;;;;;4958118;29;20045;-82
2022/09/23 12:31:03;;;;;;;22.40;17.88;;;16.00;99.90;;;;;;4957850;29;20075;-82
2022/09/23 12:33:34;;;;;;;21.55;17.80;;;16.00;99.90;;;;;;4957833;29;20050;-82
2022/09/23 12:36:04;;;;;;;20.17;18.08;;;16.00;99.90;;;;;;4940851;29;20051;-82
2022/09/23 12:38:37;;;;;;;20.85;18.30;;;16.00;99.90;;;;;;4940720;29;20187;-82
2022/09/23 12:41:35;;;;;;;24.17;18.42;;;15.90;99.90;;;;;;4957872;29;20083;-83
2022/09/23 12:44:09;;;;;;;21.52;18.77;;;16.00;99.90;;;;;;4957878;29;20058;-83
2022/09/23 12:46:35;;;;;;;20.15;18.13;;;15.90;99.90;;;;;;4957553;29;20051;-83
2022/09/23 12:49:03;;;;;;;22.90;19.13;;;15.90;99.90;;;;;;4940199;29;20047;-81
2022/09/23 12:51:30;;;;;;;20.08;17.65;;;15.80;99.90;;;;;;4940308;29;20055;-81
2022/09/23 12:54:02;;;;;;;22.08;19.15;;;15.80;99.90;;;;;;4957546;29;20085;-83
2022/09/23 12:56:50;;;;;;;24.15;19.60;;;15.70;99.90;;;;;;4940329;29;20046;-83
2022/09/23 12:59:16;;;;;;;21.55;18.95;;;15.70;99.90;;;;;;4957043;29;20054;-83
2022/09/23 13:01:43;;;;;;;24.63;19.13;;;15.70;99.90;;;;;;4939952;29;20047;-83
2022/09/23 13:07:30;;;;;;;20.90;18.55;;;15.60;99.90;;;;;;4953281;29;20091;-82
2022/09/23 13:10:13;;;;;;;21.25;18.98;;;15.60;99.90;;;;;;4955914;29;20074;-84
2022/09/23 13:12:41;;;;;;;21.13;18.88;;;15.60;99.90;;;;;;4956167;29;20043;-85
2022/09/23 13:15:34;;;;;;;23.60;18.77;;;15.50;99.90;;;;;;4957287;28;20044;-81